Terminal Aerodrome Forecast
Issued by NWS Cleveland, OH

Home | Current Version | Previous Version | Graphics & Text | Print | Product List | Glossary Off
Versions: 1 2 3 4 5 6 7 8 9 10 11 12 13 14 15

000
FTUS41 KCLE 291946 AAA
TAFYNG
TAF AMD
KYNG 291946Z 2920/3018 24008KT P6SM OVC120
     FM292200 20005KT P6SM SCT035
      TEMPO 2922/2923 -TSRA BKN035CB
     FM300000 VRB03KT P6SM SKC
     FM301500 28008KT P6SM SKC=

USA.gov is the U.S. government's official web portal to all federal, state and local government web resources and services.